sensor_id;sensor_type;location;lat;lon;timestamp;pressure;altitude;pressure_sealevel;temperature;humidity
21900;BME280;11114;50.658;12.704;2022-08-11T00:01:17;96829.19;;;19.86;41.91
21900;BME280;11114;50.658;12.704;2022-08-11T00:03:48;96833.06;;;19.83;41.90
21900;BME280;11114;50.658;12.704;2022-08-11T00:06:22;96830.81;;;19.81;42.09
21900;BME280;11114;50.658;12.704;2022-08-11T00:08:50;96827.34;;;19.80;41.61
21900;BME280;11114;50.658;12.704;2022-08-11T00:11:18;96822.25;;;19.79;42.10
21900;BME280;11114;50.658;12.704;2022-08-11T00:13:48;96811.84;;;19.77;41.95
21900;BME280;11114;50.658;12.704;2022-08-11T00:16:23;96825.09;;;19.77;42.40
21900;BME280;11114;50.658;12.704;2022-08-11T00:18:52;96825.31;;;19.76;41.95
21900;BME280;11114;50.658;12.704;2022-08-11T00:21:21;96824.69;;;19.74;42.36
21900;BME280;11114;50.658;12.704;2022-08-11T00:24:09;96828.53;;;19.71;42.42
21900;BME280;11114;50.658;12.704;2022-08-11T00:26:36;96827.72;;;19.71;42.51
21900;BME280;11114;50.658;12.704;2022-08-11T00:29:08;96819.75;;;19.71;42.40
21900;BME280;11114;50.658;12.704;2022-08-11T00:31:35;96823.00;;;19.66;42.58
21900;BME280;11114;50.658;12.704;2022-08-11T00:34:09;96827.50;;;19.66;42.78
21900;BME280;11114;50.658;12.704;2022-08-11T00:36:49;96821.56;;;19.64;42.65
21900;BME280;11114;50.658;12.704;2022-08-11T00:39:19;96821.78;;;19.62;42.57
21900;BME280;11114;50.658;12.704;2022-08-11T00:42:06;96827.06;;;19.62;42.78
21900;BME280;11114;50.658;12.704;2022-08-11T00:44:36;96817.69;;;19.60;42.87
21900;BME280;11114;50.658;12.704;2022-08-11T00:47:16;96822.16;;;19.59;42.62
21900;BME280;11114;50.658;12.704;2022-08-11T01:04:55;96819.31;;;19.54;43.28
21900;BME280;11114;50.658;12.704;2022-08-11T01:07:35;96815.81;;;19.54;43.21
21900;BME280;11114;50.658;12.704;2022-08-11T01:16:04;96818.69;;;19.52;43.48
21900;BME280;11114;50.658;12.704;2022-08-11T01:51:00;96811.81;;;19.24;44.47
21900;BME280;11114;50.658;12.704;2022-08-11T01:56:22;96810.97;;;19.23;44.42
21900;BME280;11114;50.658;12.704;2022-08-11T01:59:09;96809.34;;;19.22;44.17
21900;BME280;11114;50.658;12.704;2022-08-11T02:10:51;96814.78;;;19.14;44.56
21900;BME280;11114;50.658;12.704;2022-08-11T02:13:46;96808.06;;;19.12;44.49
21900;BME280;11114;50.658;12.704;2022-08-11T02:22:12;96801.06;;;19.04;44.98
21900;BME280;11114;50.658;12.704;2022-08-11T02:25:07;96806.34;;;19.04;44.98
21900;BME280;11114;50.658;12.704;2022-08-11T02:30:13;96801.06;;;19.04;45.07
21900;BME280;11114;50.658;12.704;2022-08-11T02:33:00;96803.72;;;19.04;44.88
21900;BME280;11114;50.658;12.704;2022-08-11T02:36:19;96792.53;;;19.02;45.29
21900;BME280;11114;50.658;12.704;2022-08-11T02:38:54;96794.75;;;19.05;44.99
21900;BME280;11114;50.658;12.704;2022-08-11T02:50:50;96799.69;;;19.08;45.25
21900;BME280;11114;50.658;12.704;2022-08-11T02:53:35;96801.69;;;19.06;45.24
21900;BME280;11114;50.658;12.704;2022-08-11T02:56:31;96805.97;;;19.07;45.10
21900;BME280;11114;50.658;12.704;2022-08-11T02:59:23;96797.84;;;19.09;45.00
21900;BME280;11114;50.658;12.704;2022-08-11T03:02:23;96799.50;;;19.10;44.97
21900;BME280;11114;50.658;12.704;2022-08-11T03:07:56;96797.41;;;19.05;45.11
21900;BME280;11114;50.658;12.704;2022-08-11T03:10:35;96801.25;;;19.03;45.30
21900;BME280;11114;50.658;12.704;2022-08-11T03:13:15;96804.75;;;19.03;45.10
21900;BME280;11114;50.658;12.704;2022-08-11T03:16:15;96802.91;;;19.04;44.98
21900;BME280;11114;50.658;12.704;2022-08-11T03:19:24;96799.44;;;19.03;45.43
21900;BME280;11114;50.658;12.704;2022-08-11T03:22:22;96802.69;;;19.05;45.45
21900;BME280;11114;50.658;12.704;2022-08-11T03:25:11;96801.06;;;19.04;45.35
21900;BME280;11114;50.658;12.704;2022-08-11T03:27:56;96801.69;;;19.06;45.33
21900;BME280;11114;50.658;12.704;2022-08-11T03:30:34;96799.25;;;19.05;45.30
21900;BME280;11114;50.658;12.704;2022-08-11T03:33:40;96797.81;;;19.02;45.29
21900;BME280;11114;50.658;12.704;2022-08-11T03:39:54;96805.53;;;19.04;45.03
21900;BME280;11114;50.658;12.704;2022-08-11T03:42:32;96810.03;;;19.03;45.21
21900;BME280;11114;50.658;12.704;2022-08-11T03:45:34;96811.66;;;19.04;45.41
21900;BME280;11114;50.658;12.704;2022-08-11T03:48:16;96803.09;;;19.02;45.19
21900;BME280;11114;50.658;12.704;2022-08-11T04:00:04;96806.50;;;18.90;45.44
21900;BME280;11114;50.658;12.704;2022-08-11T04:05:34;96812.34;;;18.86;45.49
21900;BME280;11114;50.658;12.704;2022-08-11T04:08:46;96803.38;;;18.87;45.77
21900;BME280;11114;50.658;12.704;2022-08-11T04:17:45;96814.38;;;18.84;45.73
21900;BME280;11114;50.658;12.704;2022-08-11T04:21:35;96807.25;;;18.84;45.76
21900;BME280;11114;50.658;12.704;2022-08-11T04:23:40;96811.53;;;18.85;45.77
21900;BME280;11114;50.658;12.704;2022-08-11T04:39:03;96806.13;;;18.99;45.83
21900;BME280;11114;50.658;12.704;2022-08-11T04:42:37;96799.56;;;18.96;45.62
21900;BME280;11114;50.658;12.704;2022-08-11T05:13:44;96807.16;;;19.32;45.50
21900;BME280;11114;50.658;12.704;2022-08-11T05:16:52;96807.41;;;19.37;45.31
21900;BME280;11114;50.658;12.704;2022-08-11T05:20:00;96810.28;;;19.42;45.45
21900;BME280;11114;50.658;12.704;2022-08-11T05:30:29;96809.53;;;19.61;45.00
21900;BME280;11114;50.658;12.704;2022-08-11T05:33:29;96815.69;;;19.68;45.21
21900;BME280;11114;50.658;12.704;2022-08-11T05:36:17;96804.91;;;19.76;45.19
21900;BME280;11114;50.658;12.704;2022-08-11T05:39:04;96817.78;;;19.85;45.13
21900;BME280;11114;50.658;12.704;2022-08-11T05:42:04;96818.63;;;19.92;44.93
21900;BME280;11114;50.658;12.704;2022-08-11T05:45:15;96809.50;;;20.01;45.18
21900;BME280;11114;50.658;12.704;2022-08-11T05:48:21;96813.00;;;20.08;44.68
21900;BME280;11114;50.658;12.704;2022-08-11T05:51:07;96814.66;;;20.16;44.76
21900;BME280;11114;50.658;12.704;2022-08-11T05:53:58;96813.44;;;20.25;44.56
21900;BME280;11114;50.658;12.704;2022-08-11T05:56:58;96808.97;;;20.32;44.28
21900;BME280;11114;50.658;12.704;2022-08-11T05:59:26;96811.41;;;20.40;44.26
21900;BME280;11114;50.658;12.704;2022-08-11T06:02:06;96808.56;;;20.48;44.08
21900;BME280;11114;50.658;12.704;2022-08-11T06:04:34;96811.00;;;20.56;44.19
21900;BME280;11114;50.658;12.704;2022-08-11T06:07:04;96808.38;;;20.62;44.10
21900;BME280;11114;50.658;12.704;2022-08-11T06:12:19;96813.50;;;20.76;43.89
21900;BME280;11114;50.658;12.704;2022-08-11T06:14:53;96817.19;;;20.82;44.08
21900;BME280;11114;50.658;12.704;2022-08-11T06:17:24;96817.16;;;20.88;43.86
21900;BME280;11114;50.658;12.704;2022-08-11T06:20:06;96826.53;;;20.97;43.54
21900;BME280;11114;50.658;12.704;2022-08-11T06:22:38;96821.03;;;21.05;43.09
21900;BME280;11114;50.658;12.704;2022-08-11T06:25:09;96820.19;;;21.11;43.41
21900;BME280;11114;50.658;12.704;2022-08-11T06:27:39;96825.50;;;21.18;43.20
21900;BME280;11114;50.658;12.704;2022-08-11T06:30:07;96825.91;;;21.28;42.70
21900;BME280;11114;50.658;12.704;2022-08-11T06:32:50;96828.53;;;21.34;42.57
21900;BME280;11114;50.658;12.704;2022-08-11T06:38:12;96830.53;;;21.45;42.08
21900;BME280;11114;50.658;12.704;2022-08-11T06:40:56;96834.41;;;21.55;41.93
21900;BME280;11114;50.658;12.704;2022-08-11T06:44:14;96834.41;;;21.62;41.69
21900;BME280;11114;50.658;12.704;2022-08-11T06:46:47;96833.75;;;21.73;41.35
21900;BME280;11114;50.658;12.704;2022-08-11T06:49:27;96833.69;;;21.86;41.53
21900;BME280;11114;50.658;12.704;2022-08-11T06:52:17;96834.91;;;21.90;41.50
21900;BME280;11114;50.658;12.704;2022-08-11T06:55:07;96832.88;;;21.92;41.74
21900;BME280;11114;50.658;12.704;2022-08-11T06:57:56;96825.06;;;21.97;41.21
21900;BME280;11114;50.658;12.704;2022-08-11T07:00:44;96822.53;;;22.08;41.26
21900;BME280;11114;50.658;12.704;2022-08-11T07:03:17;96827.19;;;22.19;39.57
21900;BME280;11114;50.658;12.704;2022-08-11T07:06:03;96833.28;;;22.33;38.61
21900;BME280;11114;50.658;12.704;2022-08-11T07:14:37;96835.38;;;22.55;38.59
21900;BME280;11114;50.658;12.704;2022-08-11T07:17:27;96828.16;;;22.62;38.21
21900;BME280;11114;50.658;12.704;2022-08-11T07:19:56;96830.34;;;22.71;38.13
21900;BME280;11114;50.658;12.704;2022-08-11T07:22:53;96828.81;;;22.82;38.23
21900;BME280;11114;50.658;12.704;2022-08-11T07:25:41;96829.53;;;22.95;37.64
21900;BME280;11114;50.658;12.704;2022-08-11T07:28:29;96834.31;;;23.11;37.83
21900;BME280;11114;50.658;12.704;2022-08-11T07:34:14;96835.03;;;23.42;35.54
21900;BME280;11114;50.658;12.704;2022-08-11T07:36:54;96830.16;;;23.57;35.05
21900;BME280;11114;50.658;12.704;2022-08-11T07:39:24;96834.97;;;23.67;35.75
21900;BME280;11114;50.658;12.704;2022-08-11T07:41:55;96828.97;;;23.71;35.43
21900;BME280;11114;50.658;12.704;2022-08-11T07:44:27;96823.13;;;23.81;35.01
21900;BME280;11114;50.658;12.704;2022-08-11T07:47:01;96824.50;;;24.01;34.86
21900;BME280;11114;50.658;12.704;2022-08-11T07:49:47;96818.81;;;24.27;34.62
21900;BME280;11114;50.658;12.704;2022-08-11T07:52:35;96813.75;;;24.37;34.03
21900;BME280;11114;50.658;12.704;2022-08-11T07:55:06;96821.28;;;24.58;34.32
21900;BME280;11114;50.658;12.704;2022-08-11T07:57:35;96816.31;;;24.84;34.09
21900;BME280;11114;50.658;12.704;2022-08-11T08:00:47;96815.34;;;25.19;33.15
21900;BME280;11114;50.658;12.704;2022-08-11T08:03:37;96813.13;;;25.51;32.78
21900;BME280;11114;50.658;12.704;2022-08-11T08:06:24;96814.84;;;25.80;32.33
21900;BME280;11114;50.658;12.704;2022-08-11T08:09:10;96813.59;;;26.10;32.68
21900;BME280;11114;50.658;12.704;2022-08-11T08:11:59;96812.97;;;26.47;32.79
21900;BME280;11114;50.658;12.704;2022-08-11T08:14:45;96816.53;;;26.80;31.70
21900;BME280;11114;50.658;12.704;2022-08-11T08:17:31;96809.13;;;27.04;30.95
21900;BME280;11114;50.658;12.704;2022-08-11T08:20:43;96814.22;;;27.38;31.42
21900;BME280;11114;50.658;12.704;2022-08-11T08:23:11;96817.31;;;27.47;30.04
21900;BME280;11114;50.658;12.704;2022-08-11T08:25:40;96811.69;;;27.48;30.00
21900;BME280;11114;50.658;12.704;2022-08-11T08:28:18;96800.38;;;27.62;29.09
21900;BME280;11114;50.658;12.704;2022-08-11T08:30:48;96804.88;;;27.78;30.15
21900;BME280;11114;50.658;12.704;2022-08-11T08:33:21;96803.97;;;27.89;29.23
21900;BME280;11114;50.658;12.704;2022-08-11T08:35:52;96807.81;;;27.98;29.18
21900;BME280;11114;50.658;12.704;2022-08-11T08:38:42;96796.06;;;28.04;28.45
21900;BME280;11114;50.658;12.704;2022-08-11T08:41:16;96796.75;;;28.16;28.78
21900;BME280;11114;50.658;12.704;2022-08-11T08:43:48;96787.75;;;28.27;28.12
21900;BME280;11114;50.658;12.704;2022-08-11T08:46:19;96793.75;;;28.34;28.31
21900;BME280;11114;50.658;12.704;2022-08-11T08:48:48;96792.13;;;28.33;28.77
21900;BME280;11114;50.658;12.704;2022-08-11T08:51:20;96787.25;;;28.30;28.75
21900;BME280;11114;50.658;12.704;2022-08-11T08:54:24;96783.31;;;28.38;28.55
21900;BME280;11114;50.658;12.704;2022-08-11T08:56:54;96795.72;;;28.43;28.54
21900;BME280;11114;50.658;12.704;2022-08-11T08:59:25;96784.63;;;28.61;28.31
21900;BME280;11114;50.658;12.704;2022-08-11T09:02:12;96785.50;;;31.26;25.24
21900;BME280;11114;50.658;12.704;2022-08-11T09:04:44;96776.38;;;35.47;20.17
21900;BME280;11114;50.658;12.704;2022-08-11T09:07:15;96774.81;;;38.02;18.43
21900;BME280;11114;50.658;12.704;2022-08-11T09:09:50;96770.75;;;39.48;16.76
21900;BME280;11114;50.658;12.704;2022-08-11T09:12:19;96782.16;;;40.33;15.79
21900;BME280;11114;50.658;12.704;2022-08-11T09:15:08;96765.03;;;41.82;15.75
21900;BME280;11114;50.658;12.704;2022-08-11T09:17:40;96764.13;;;42.62;14.88
21900;BME280;11114;50.658;12.704;2022-08-11T09:20:10;96766.66;;;42.31;14.93
21900;BME280;11114;50.658;12.704;2022-08-11T09:22:40;96761.75;;;43.27;14.59
21900;BME280;11114;50.658;12.704;2022-08-11T09:25:48;96762.19;;;44.49;13.32
21900;BME280;11114;50.658;12.704;2022-08-11T09:28:35;96758.44;;;43.49;13.42
21900;BME280;11114;50.658;12.704;2022-08-11T09:31:04;96765.22;;;44.28;13.21
21900;BME280;11114;50.658;12.704;2022-08-11T09:33:32;96759.78;;;44.82;12.45
21900;BME280;11114;50.658;12.704;2022-08-11T09:35:59;96753.16;;;44.67;12.30
21900;BME280;11114;50.658;12.704;2022-08-11T09:38:50;96758.19;;;44.81;12.35
21900;BME280;11114;50.658;12.704;2022-08-11T09:41:39;96754.94;;;44.25;12.41
21900;BME280;11114;50.658;12.704;2022-08-11T09:44:32;96761.00;;;44.31;12.27
21900;BME280;11114;50.658;12.704;2022-08-11T09:47:23;96745.25;;;45.60;11.80
21900;BME280;11114;50.658;12.704;2022-08-11T09:49:55;96748.63;;;46.69;11.42
21900;BME280;11114;50.658;12.704;2022-08-11T09:52:28;96745.53;;;45.55;11.31
21900;BME280;11114;50.658;12.704;2022-08-11T09:54:56;96739.19;;;45.96;11.50
21900;BME280;11114;50.658;12.704;2022-08-11T09:57:24;96740.50;;;46.28;10.84
21900;BME280;11114;50.658;12.704;2022-08-11T10:00:11;96734.53;;;42.20;13.15
21900;BME280;11114;50.658;12.704;2022-08-11T10:02:42;96731.75;;;38.80;15.02
21900;BME280;11114;50.658;12.704;2022-08-11T10:05:14;96723.66;;;40.99;14.27
21900;BME280;11114;50.658;12.704;2022-08-11T10:08:02;96726.66;;;42.81;13.36
21900;BME280;11114;50.658;12.704;2022-08-11T10:10:30;96723.75;;;44.06;11.22
21900;BME280;11114;50.658;12.704;2022-08-11T10:13:03;96725.63;;;44.17;11.78
21900;BME280;11114;50.658;12.704;2022-08-11T10:15:54;96714.38;;;42.91;11.79
21900;BME280;11114;50.658;12.704;2022-08-11T10:18:41;96727.56;;;43.13;12.39
21900;BME280;11114;50.658;12.704;2022-08-11T10:21:30;96714.09;;;43.97;11.55
21900;BME280;11114;50.658;12.704;2022-08-11T10:24:03;96710.44;;;44.23;11.77
21900;BME280;11114;50.658;12.704;2022-08-11T10:26:50;96716.56;;;44.02;11.71
21900;BME280;11114;50.658;12.704;2022-08-11T10:32:20;96706.34;;;45.46;11.14
21900;BME280;11114;50.658;12.704;2022-08-11T10:35:26;96707.28;;;46.50;10.94
21900;BME280;11114;50.658;12.704;2022-08-11T10:37:54;96698.28;;;45.79;10.56
21900;BME280;11114;50.658;12.704;2022-08-11T10:40:38;96698.69;;;45.17;10.92
21900;BME280;11114;50.658;12.704;2022-08-11T10:43:06;96695.56;;;45.60;11.53
21900;BME280;11114;50.658;12.704;2022-08-11T10:45:44;96694.47;;;46.39;10.68
21900;BME280;11114;50.658;12.704;2022-08-11T10:48:37;96689.72;;;46.39;10.14
21900;BME280;11114;50.658;12.704;2022-08-11T10:51:05;96687.78;;;46.40;10.45
21900;BME280;11114;50.658;12.704;2022-08-11T10:53:44;96692.75;;;45.79;9.74
21900;BME280;11114;50.658;12.704;2022-08-11T10:56:34;96682.66;;;45.90;10.92
21900;BME280;11114;50.658;12.704;2022-08-11T10:59:21;96674.47;;;45.93;10.32
21900;BME280;11114;50.658;12.704;2022-08-11T11:01:51;96688.53;;;45.02;10.18
21900;BME280;11114;50.658;12.704;2022-08-11T11:04:32;96689.28;;;44.99;10.45
21900;BME280;11114;50.658;12.704;2022-08-11T11:07:13;96684.03;;;44.94;10.92
21900;BME280;11114;50.658;12.704;2022-08-11T11:09:47;96680.22;;;45.40;11.30
21900;BME280;11114;50.658;12.704;2022-08-11T11:15:01;96670.69;;;44.59;11.02
21900;BME280;11114;50.658;12.704;2022-08-11T11:17:53;96673.69;;;43.85;11.21
21900;BME280;11114;50.658;12.704;2022-08-11T11:20:24;96670.34;;;43.76;11.45
21900;BME280;11114;50.658;12.704;2022-08-11T11:23:19;96671.44;;;43.87;11.01
21900;BME280;11114;50.658;12.704;2022-08-11T11:25:58;96669.13;;;44.23;11.09
21900;BME280;11114;50.658;12.704;2022-08-11T11:34:07;96661.03;;;44.15;10.93
21900;BME280;11114;50.658;12.704;2022-08-11T11:36:46;96658.34;;;44.53;10.81
21900;BME280;11114;50.658;12.704;2022-08-11T11:39:20;96662.25;;;43.99;11.36
21900;BME280;11114;50.658;12.704;2022-08-11T11:41:48;96646.84;;;44.66;10.72
21900;BME280;11114;50.658;12.704;2022-08-11T11:44:19;96643.72;;;44.49;11.30
21900;BME280;11114;50.658;12.704;2022-08-11T11:46:47;96656.94;;;43.90;11.29
21900;BME280;11114;50.658;12.704;2022-08-11T11:49:16;96652.59;;;42.45;12.11
21900;BME280;11114;50.658;12.704;2022-08-11T11:51:46;96654.47;;;42.57;12.08
21900;BME280;11114;50.658;12.704;2022-08-11T11:54:16;96645.28;;;42.77;12.24
21900;BME280;11114;50.658;12.704;2022-08-11T11:56:45;96650.25;;;43.29;12.08
21900;BME280;11114;50.658;12.704;2022-08-11T11:59:13;96648.84;;;43.35;11.75
21900;BME280;11114;50.658;12.704;2022-08-11T12:01:59;96652.06;;;43.22;11.77
21900;BME280;11114;50.658;12.704;2022-08-11T12:04:40;96651.19;;;42.12;12.35
21900;BME280;11114;50.658;12.704;2022-08-11T12:07:09;96642.13;;;40.84;12.83
21900;BME280;11114;50.658;12.704;2022-08-11T12:09:56;96645.28;;;39.92;13.26
21900;BME280;11114;50.658;12.704;2022-08-11T12:12:24;96646.91;;;39.02;12.77
21900;BME280;11114;50.658;12.704;2022-08-11T12:15:10;96649.34;;;38.86;13.87
21900;BME280;11114;50.658;12.704;2022-08-11T12:17:38;96638.34;;;39.20;14.18
21900;BME280;11114;50.658;12.704;2022-08-11T12:20:06;96635.63;;;39.86;13.70
21900;BME280;11114;50.658;12.704;2022-08-11T12:22:55;96631.75;;;39.87;13.68
21900;BME280;11114;50.658;12.704;2022-08-11T12:25:41;96628.16;;;41.09;13.10
21900;BME280;11114;50.658;12.704;2022-08-11T12:28:48;96622.53;;;41.62;12.99
21900;BME280;11114;50.658;12.704;2022-08-11T12:31:16;96616.16;;;42.21;12.42
21900;BME280;11114;50.658;12.704;2022-08-11T12:33:43;96616.69;;;42.66;12.10
21900;BME280;11114;50.658;12.704;2022-08-11T12:36:10;96610.50;;;42.41;12.70
21900;BME280;11114;50.658;12.704;2022-08-11T12:38:43;96613.94;;;41.63;12.75
21900;BME280;11114;50.658;12.704;2022-08-11T12:41:18;96622.38;;;41.46;13.53
21900;BME280;11114;50.658;12.704;2022-08-11T12:44:08;96605.69;;;41.87;12.92
21900;BME280;11114;50.658;12.704;2022-08-11T12:46:58;96606.09;;;41.06;13.11
21900;BME280;11114;50.658;12.704;2022-08-11T12:49:30;96598.44;;;40.14;14.19
21900;BME280;11114;50.658;12.704;2022-08-11T12:52:23;96611.75;;;39.00;14.62
21900;BME280;11114;50.658;12.704;2022-08-11T12:54:58;96607.72;;;37.63;15.91
21900;BME280;11114;50.658;12.704;2022-08-11T12:57:44;96590.75;;;36.58;16.70
21900;BME280;11114;50.658;12.704;2022-08-11T13:00:31;96593.31;;;35.84;17.33
21900;BME280;11114;50.658;12.704;2022-08-11T13:03:19;96600.72;;;35.43;17.04
21900;BME280;11114;50.658;12.704;2022-08-11T13:06:05;96599.22;;;35.24;17.38
21900;BME280;11114;50.658;12.704;2022-08-11T13:08:35;96593.75;;;34.70;17.52
21900;BME280;11114;50.658;12.704;2022-08-11T13:11:03;96587.31;;;33.97;17.81
21900;BME280;11114;50.658;12.704;2022-08-11T13:13:50;96598.59;;;33.44;18.77
21900;BME280;11114;50.658;12.704;2022-08-11T13:16:27;96586.09;;;33.48;18.95
21900;BME280;11114;50.658;12.704;2022-08-11T13:18:56;96590.88;;;33.56;18.94
21900;BME280;11114;50.658;12.704;2022-08-11T13:21:25;96574.63;;;33.38;19.28
21900;BME280;11114;50.658;12.704;2022-08-11T13:23:53;96582.50;;;33.34;19.46
21900;BME280;11114;50.658;12.704;2022-08-11T13:26:37;96586.97;;;33.67;19.72
21900;BME280;11114;50.658;12.704;2022-08-11T13:29:22;96574.84;;;33.41;19.27
21900;BME280;11114;50.658;12.704;2022-08-11T13:31:53;96577.59;;;33.36;19.35
21900;BME280;11114;50.658;12.704;2022-08-11T13:34:23;96569.41;;;33.41;18.89
21900;BME280;11114;50.658;12.704;2022-08-11T13:36:53;96575.84;;;33.45;19.64
21900;BME280;11114;50.658;12.704;2022-08-11T13:39:21;96570.84;;;33.34;19.85
21900;BME280;11114;50.658;12.704;2022-08-11T13:41:52;96566.75;;;33.18;20.08
21900;BME280;11114;50.658;12.704;2022-08-11T13:44:21;96573.81;;;32.90;19.90
21900;BME280;11114;50.658;12.704;2022-08-11T13:47:03;96569.09;;;32.77;19.54
21900;BME280;11114;50.658;12.704;2022-08-11T13:49:38;96557.59;;;32.34;19.64
21900;BME280;11114;50.658;12.704;2022-08-11T13:52:12;96562.31;;;31.85;20.07
21900;BME280;11114;50.658;12.704;2022-08-11T13:54:40;96558.25;;;31.82;20.08
21900;BME280;11114;50.658;12.704;2022-08-11T13:57:10;96557.94;;;31.89;20.43
21900;BME280;11114;50.658;12.704;2022-08-11T13:59:58;96551.03;;;32.11;20.49
21900;BME280;11114;50.658;12.704;2022-08-11T14:02:50;96547.06;;;31.99;20.20
21900;BME280;11114;50.658;12.704;2022-08-11T14:05:25;96549.53;;;31.95;20.59
21900;BME280;11114;50.658;12.704;2022-08-11T14:08:00;96544.03;;;32.10;20.82
21900;BME280;11114;50.658;12.704;2022-08-11T14:10:29;96551.59;;;32.08;20.16
21900;BME280;11114;50.658;12.704;2022-08-11T14:13:02;96549.56;;;32.29;19.79
21900;BME280;11114;50.658;12.704;2022-08-11T14:15:51;96540.00;;;32.08;19.15
21900;BME280;11114;50.658;12.704;2022-08-11T14:18:25;96537.31;;;32.03;19.22
21900;BME280;11114;50.658;12.704;2022-08-11T14:20:56;96538.97;;;31.99;19.89
21900;BME280;11114;50.658;12.704;2022-08-11T14:23:51;96538.63;;;31.72;20.17
21900;BME280;11114;50.658;12.704;2022-08-11T14:26:21;96533.19;;;31.77;19.91
21900;BME280;11114;50.658;12.704;2022-08-11T14:28:50;96529.75;;;31.67;20.56
21900;BME280;11114;50.658;12.704;2022-08-11T14:31:25;96529.66;;;31.38;21.20
21900;BME280;11114;50.658;12.704;2022-08-11T14:34:00;96526.28;;;31.13;20.70
21900;BME280;11114;50.658;12.704;2022-08-11T14:36:30;96520.66;;;30.94;21.15
21900;BME280;11114;50.658;12.704;2022-08-11T14:39:01;96535.84;;;30.76;20.86
21900;BME280;11114;50.658;12.704;2022-08-11T14:41:29;96531.00;;;30.73;20.92
21900;BME280;11114;50.658;12.704;2022-08-11T14:44:36;96526.16;;;30.65;20.67
21900;BME280;11114;50.658;12.704;2022-08-11T14:47:22;96521.06;;;30.43;20.78
21900;BME280;11114;50.658;12.704;2022-08-11T14:49:55;96525.41;;;30.34;20.96
21900;BME280;11114;50.658;12.704;2022-08-11T14:52:51;96527.06;;;30.20;21.23
21900;BME280;11114;50.658;12.704;2022-08-11T14:55:22;96523.03;;;30.08;21.10
21900;BME280;11114;50.658;12.704;2022-08-11T14:58:10;96528.16;;;30.05;21.02
21900;BME280;11114;50.658;12.704;2022-08-11T15:00:41;96533.81;;;29.98;20.94
21900;BME280;11114;50.658;12.704;2022-08-11T15:03:13;96527.03;;;29.66;21.37
21900;BME280;11114;50.658;12.704;2022-08-11T15:05:48;96528.63;;;29.62;21.56
21900;BME280;11114;50.658;12.704;2022-08-11T15:08:32;96524.88;;;29.58;21.37
21900;BME280;11114;50.658;12.704;2022-08-11T15:11:20;96522.97;;;29.53;21.63
21900;BME280;11114;50.658;12.704;2022-08-11T15:14:08;96520.75;;;29.21;21.96
21900;BME280;11114;50.658;12.704;2022-08-11T15:16:39;96519.91;;;29.20;22.33
21900;BME280;11114;50.658;12.704;2022-08-11T15:19:27;96516.69;;;29.23;21.79
21900;BME280;11114;50.658;12.704;2022-08-11T15:22:02;96505.41;;;29.31;21.92
21900;BME280;11114;50.658;12.704;2022-08-11T15:25:04;96499.75;;;29.18;21.63
21900;BME280;11114;50.658;12.704;2022-08-11T15:27:32;96512.13;;;29.19;22.12
21900;BME280;11114;50.658;12.704;2022-08-11T15:30:18;96497.56;;;29.10;22.33
21900;BME280;11114;50.658;12.704;2022-08-11T15:33:06;96507.50;;;29.09;22.51
21900;BME280;11114;50.658;12.704;2022-08-11T15:35:53;96500.50;;;28.98;22.37
21900;BME280;11114;50.658;12.704;2022-08-11T15:38:56;96504.78;;;28.94;21.74
21900;BME280;11114;50.658;12.704;2022-08-11T15:41:40;96502.88;;;28.90;22.07
21900;BME280;11114;50.658;12.704;2022-08-11T15:44:32;96505.56;;;28.85;21.54
21900;BME280;11114;50.658;12.704;2022-08-11T15:47:38;96502.53;;;28.71;21.82
21900;BME280;11114;50.658;12.704;2022-08-11T15:50:11;96489.28;;;28.55;21.80
21900;BME280;11114;50.658;12.704;2022-08-11T15:53:04;96493.56;;;28.56;21.93
21900;BME280;11114;50.658;12.704;2022-08-11T15:55:34;96490.06;;;28.50;21.62
21900;BME280;11114;50.658;12.704;2022-08-11T15:58:06;96489.22;;;28.45;21.15
21900;BME280;11114;50.658;12.704;2022-08-11T16:00:53;96495.06;;;28.32;21.10
21900;BME280;11114;50.658;12.704;2022-08-11T16:04:13;96494.91;;;28.12;20.85
21900;BME280;11114;50.658;12.704;2022-08-11T16:12:48;96485.78;;;28.13;21.11
21900;BME280;11114;50.658;12.704;2022-08-11T16:15:46;96488.69;;;28.02;21.12
21900;BME280;11114;50.658;12.704;2022-08-11T16:19:02;96485.66;;;27.93;21.48
21900;BME280;11114;50.658;12.704;2022-08-11T16:21:35;96473.84;;;27.94;21.53
21900;BME280;11114;50.658;12.704;2022-08-11T16:24:32;96480.69;;;27.75;21.67
21900;BME280;11114;50.658;12.704;2022-08-11T16:27:41;96478.38;;;27.57;22.06
21900;BME280;11114;50.658;12.704;2022-08-11T16:30:09;96479.94;;;27.53;22.46
21900;BME280;11114;50.658;12.704;2022-08-11T16:32:39;96475.69;;;27.57;22.29
21900;BME280;11114;50.658;12.704;2022-08-11T16:35:36;96476.72;;;27.51;22.26
21900;BME280;11114;50.658;12.704;2022-08-11T16:38:24;96472.97;;;27.52;21.86
21900;BME280;11114;50.658;12.704;2022-08-11T16:41:11;96475.06;;;27.46;22.34
21900;BME280;11114;50.658;12.704;2022-08-11T16:43:45;96469.94;;;27.44;22.56
21900;BME280;11114;50.658;12.704;2022-08-11T16:46:31;96477.06;;;27.29;22.47
21900;BME280;11114;50.658;12.704;2022-08-11T16:49:25;96482.63;;;27.22;22.77
21900;BME280;11114;50.658;12.704;2022-08-11T16:51:59;96476.38;;;27.17;22.48
21900;BME280;11114;50.658;12.704;2022-08-11T16:54:38;96474.72;;;27.11;22.64
21900;BME280;11114;50.658;12.704;2022-08-11T16:57:17;96473.59;;;27.07;22.73
21900;BME280;11114;50.658;12.704;2022-08-11T17:00:05;96463.91;;;27.01;22.60
21900;BME280;11114;50.658;12.704;2022-08-11T17:02:39;96466.47;;;26.96;22.66
21900;BME280;11114;50.658;12.704;2022-08-11T17:05:26;96478.09;;;26.80;22.72
21900;BME280;11114;50.658;12.704;2022-08-11T17:08:26;96477.97;;;26.70;22.93
21900;BME280;11114;50.658;12.704;2022-08-11T17:11:28;96469.28;;;26.58;22.82